Time;durP1;ratioP1;P1;durP2;ratioP2;P2;SDS_P1;SDS_P2;PMS_P1;PMS_P2;Temp;Humidity;BMP_temperature;BMP_pressure;BME280_temperature;BME280_humidity;BME280_pressure;Samples;Min_cycle;Max_cycle;Signal;HPM_P1;HPM_P2
2023/02/10 00:01:24;;;;;;;33.40;16.00;;;;;;;1.06;66.38;102432.44;4990466;28;20141;-64
2023/02/10 00:03:51;;;;;;;27.73;14.98;;;;;;;1.02;67.24;102434.13;4996186;28;20154;-66
2023/02/10 00:06:20;;;;;;;26.90;15.75;;;;;;;1.05;66.82;102433.28;4995190;28;20049;-63
2023/02/10 00:08:52;;;;;;;29.10;15.65;;;;;;;1.02;68.03;102434.13;5004539;28;20081;-64
2023/02/10 00:11:55;;;;;;;27.83;16.30;;;;;;;1.05;67.67;102434.16;4988245;28;20057;-62
2023/02/10 00:14:07;;;;;;;27.17;15.98;;;;;;;1.05;67.51;102433.28;4993224;28;20152;-64
2023/02/10 00:16:35;;;;;;;28.27;15.57;;;;;;;1.07;67.68;102431.56;4988337;28;20058;-64
2023/02/10 00:19:02;;;;;;;27.85;16.50;;;;;;;1.09;67.53;102435.06;4994010;28;20141;-65
2023/02/10 00:21:29;;;;;;;23.70;14.90;;;;;;;1.10;67.29;102437.66;4985840;28;20072;-62
2023/02/10 00:23:57;;;;;;;24.65;15.07;;;;;;;1.11;67.36;102430.75;4993800;28;20066;-63
2023/02/10 00:26:25;;;;;;;27.95;14.95;;;;;;;1.08;67.70;102438.47;4993508;28;20114;-62
2023/02/10 00:28:52;;;;;;;22.75;14.43;;;;;;;1.08;67.68;102438.47;4993970;28;20145;-65
2023/02/10 00:31:21;;;;;;;29.63;16.42;;;;;;;1.21;67.78;102445.53;4981901;28;20137;-63
2023/02/10 00:33:48;;;;;;;33.25;15.32;;;;;;;1.12;67.58;102433.34;4992946;28;20073;-64
2023/02/10 00:36:16;;;;;;;25.27;14.75;;;;;;;1.08;67.90;102436.78;4993306;28;20626;-65
2023/02/10 00:38:44;;;;;;;23.60;15.65;;;;;;;1.11;67.58;102428.16;4988789;28;20054;-63
2023/02/10 00:41:19;;;;;;;29.15;16.25;;;;;;;1.07;68.22;102441.94;4989701;28;20060;-63
2023/02/10 00:43:46;;;;;;;26.02;15.57;;;;;;;1.09;67.80;102442.84;4989227;28;20061;-64
2023/02/10 00:46:15;;;;;;;24.73;15.65;;;;;;;1.19;67.79;102442.94;4989614;28;20057;-65
2023/02/10 00:48:43;;;;;;;30.67;16.13;;;;;;;1.26;67.59;102446.44;4988171;28;20129;-63
2023/02/10 00:51:11;;;;;;;27.55;16.15;;;;;;;1.19;67.66;102442.94;4989565;28;20165;-64
2023/02/10 00:53:38;;;;;;;32.60;16.15;;;;;;;1.15;68.42;102451.53;4993550;28;20153;-63
2023/02/10 00:56:06;;;;;;;27.38;15.25;;;;;;;1.14;68.10;102449.81;4995947;28;20077;-65
2023/02/10 00:58:33;;;;;;;26.08;15.65;;;;;;;1.16;68.16;102457.59;4987524;28;20173;-64
2023/02/10 01:01:00;;;;;;;31.92;15.68;;;;;;;1.24;68.17;102454.22;4989217;28;20066;-64
2023/02/10 01:03:27;;;;;;;30.60;17.45;;;;;;;1.21;68.84;102456.78;4990693;28;20046;-64
2023/02/10 01:05:54;;;;;;;27.08;16.40;;;;;;;1.13;69.41;102463.63;4988354;28;20137;-63
2023/02/10 01:08:22;;;;;;;27.05;15.90;;;;;;;1.17;68.88;102461.91;4990925;28;20065;-64
2023/02/10 01:10:57;;;;;;;26.85;17.13;;;;;;;1.16;69.22;102468.84;4991643;28;20164;-64
2023/02/10 01:13:25;;;;;;;28.05;16.08;;;;;;;1.17;69.48;102460.22;4986841;28;20141;-64
2023/02/10 01:15:52;;;;;;;29.33;16.13;;;;;;;1.19;69.26;102462.81;4985002;28;20137;-65
2023/02/10 01:18:19;;;;;;;29.60;17.08;;;;;;;1.16;70.18;102463.66;4999024;28;20569;-64
2023/02/10 01:20:46;;;;;;;32.80;17.17;;;;;;;1.14;70.03;102467.97;4988287;28;20133;-64
2023/02/10 01:23:13;;;;;;;28.88;15.07;;;;;;;1.14;70.51;102460.19;4987401;28;20054;-66
2023/02/10 01:25:40;;;;;;;30.45;18.02;;;;;;;1.12;70.56;102458.41;4984044;28;20050;-65
2023/02/10 01:28:08;;;;;;;28.75;15.57;;;;;;;1.09;71.37;102461.88;4983850;28;20050;-64
2023/02/10 01:30:35;;;;;;;31.73;17.50;;;;;;;1.09;71.19;102459.28;4991422;28;20587;-64
2023/02/10 01:33:03;;;;;;;28.33;16.83;;;;;;;1.06;71.41;102466.16;4986107;28;20136;-63
2023/02/10 01:35:30;;;;;;;29.38;17.63;;;;;;;1.05;72.19;102461.81;4990442;28;20419;-64
2023/02/10 01:37:58;;;;;;;30.48;16.65;;;;;;;1.16;71.21;102473.16;4989703;28;20088;-64
2023/02/10 01:40:26;;;;;;;29.52;17.20;;;;;;;1.11;71.77;102462.72;4987386;28;20072;-62
2023/02/10 01:42:53;;;;;;;32.78;17.55;;;;;;;1.05;72.08;102470.47;4978480;28;20051;-64
2023/02/10 01:45:47;;;;;;;29.90;17.05;;;;;;;1.00;72.55;102466.97;4997596;28;20064;-64
2023/02/10 01:48:14;;;;;;;32.00;17.75;;;;;;;0.97;72.64;102467.78;4985196;28;20556;-64
2023/02/10 01:50:48;;;;;;;31.67;18.58;;;;;;;0.97;72.76;102465.19;4987983;28;20598;-62
2023/02/10 01:53:16;;;;;;;30.00;16.98;;;;;;;0.91;73.24;102453.91;4990921;28;20464;-63
2023/02/10 01:55:46;;;;;;;32.05;17.45;;;;;;;1.00;72.60;102443.63;4991659;28;20067;-65
2023/02/10 01:58:15;;;;;;;29.55;18.20;;;;;;;1.00;72.78;102441.91;4989055;28;20078;-64
2023/02/10 02:00:43;;;;;;;33.97;18.13;;;;;;;0.99;72.53;102439.25;5017017;28;20053;-63
2023/02/10 02:03:10;;;;;;;25.40;16.60;;;;;;;0.95;72.44;102448.75;4993196;28;20559;-64
2023/02/10 02:05:40;;;;;;;33.13;17.42;;;;;;;0.92;72.44;102456.50;4989892;28;20146;-63
2023/02/10 02:08:11;;;;;;;34.78;19.35;;;;;;;0.89;73.25;102455.59;4987009;28;20531;-63
2023/02/10 02:10:52;;;;;;;34.45;16.83;;;;;;;0.88;73.04;102451.28;4986576;28;20497;-63
2023/02/10 02:13:30;;;;;;;31.60;18.30;;;;;;;0.85;73.75;102454.69;4990601;28;20387;-63
2023/02/10 02:16:03;;;;;;;26.80;15.95;;;;;;;0.80;73.63;102453.78;5019519;28;20050;-63
2023/02/10 02:18:38;;;;;;;31.40;18.10;;;;;;;0.79;73.67;102454.63;4986357;28;20073;-62
2023/02/10 02:21:13;;;;;;;32.35;18.98;;;;;;;0.76;73.94;102460.63;5004624;28;20420;-66
2023/02/10 02:23:49;;;;;;;38.42;19.77;;;;;;;0.73;74.20;102473.59;4989095;28;20069;-66
2023/02/10 02:26:44;;;;;;;28.92;18.08;;;;;;;0.72;74.53;102476.16;4990059;28;20529;-65
2023/02/10 02:29:42;;;;;;;34.67;18.15;;;;;;;0.71;74.68;102470.09;4988670;28;20074;-65
2023/02/10 02:32:19;;;;;;;37.65;18.63;;;;;;;0.70;75.38;102470.09;4989238;28;20052;-63
2023/02/10 02:34:53;;;;;;;32.88;18.83;;;;;;;0.68;75.63;102472.66;4986070;28;20145;-64
2023/02/10 02:37:29;;;;;;;31.83;19.23;;;;;;;0.66;75.71;102482.13;4984130;28;20066;-63
2023/02/10 02:39:57;;;;;;;;;;;;;;;0.68;75.77;102474.41;5010329;28;20652;-63
2023/02/10 02:42:30;;;;;;;36.05;19.35;;;;;;;0.74;75.31;102472.72;4988149;28;20016;-63
2023/02/10 02:45:02;;;;;;;41.08;20.65;;;;;;;0.69;75.64;102471.81;4985125;28;20473;-65
2023/02/10 02:47:34;;;;;;;35.78;18.65;;;;;;;0.71;74.99;102470.09;4983987;28;20541;-64
2023/02/10 02:50:20;;;;;;;34.47;20.23;;;;;;;0.76;75.12;102470.16;4988775;28;20514;-63
2023/02/10 02:53:06;;;;;;;34.25;19.45;;;;;;;0.77;74.92;102458.94;5005901;28;20058;-63
2023/02/10 02:55:48;;;;;;;37.60;18.85;;;;;;;0.79;74.91;102461.53;4990119;28;20119;-64
2023/02/10 02:58:27;;;;;;;32.15;19.30;;;;;;;0.73;75.04;102462.34;4994588;28;20053;-65
2023/02/10 03:01:00;;;;;;;29.70;17.90;;;;;;;0.72;75.23;102468.38;4986902;28;20476;-64
2023/02/10 03:03:27;;;;;;;35.10;20.33;;;;;;;0.70;75.77;102470.94;4984631;28;20588;-64
2023/02/10 03:05:54;;;;;;;35.67;19.40;;;;;;;0.68;75.60;102474.41;4979977;28;20064;-64
2023/02/10 03:08:21;;;;;;;35.05;19.13;;;;;;;0.66;75.75;102476.09;4986436;28;20125;-65
2023/02/10 03:10:48;;;;;;;35.55;19.42;;;;;;;0.65;75.45;102479.53;4987691;28;20080;-64
2023/02/10 03:13:16;;;;;;;37.75;19.55;;;;;;;0.64;75.77;102481.25;4982395;28;20456;-64
2023/02/10 03:15:43;;;;;;;33.17;19.08;;;;;;;0.62;75.87;102480.34;4985363;28;20077;-64
2023/02/10 03:18:10;;;;;;;33.40;19.73;;;;;;;0.61;76.15;102475.16;4990785;28;20590;-65
2023/02/10 03:20:38;;;;;;;36.67;20.17;;;;;;;0.66;75.35;102479.53;4984512;28;20150;-62
2023/02/10 03:23:06;;;;;;;35.65;19.70;;;;;;;0.63;75.88;102479.53;4993092;28;20089;-66
2023/02/10 03:25:33;;;;;;;36.92;19.50;;;;;;;0.59;76.74;102479.47;4989852;28;20418;-65
2023/02/10 03:28:00;;;;;;;35.13;19.95;;;;;;;0.69;75.80;102483.91;4974635;28;20806;-65
2023/02/10 03:30:28;;;;;;;37.80;19.23;;;;;;;0.71;75.70;102488.25;4989185;28;20104;-63
2023/02/10 03:32:56;;;;;;;36.78;20.23;;;;;;;0.71;75.75;102488.25;4988093;28;20137;-64
2023/02/10 03:35:23;;;;;;;40.28;21.90;;;;;;;0.68;76.39;102488.22;4987828;28;20133;-64
2023/02/10 03:37:50;;;;;;;34.97;20.00;;;;;;;0.64;77.41;102478.66;4989710;28;20050;-65
2023/02/10 03:40:17;;;;;;;38.40;21.33;;;;;;;0.62;77.37;102485.53;4991186;28;20481;-64
2023/02/10 03:42:45;;;;;;;44.13;22.55;;;;;;;0.70;77.24;102496.00;4993001;28;20173;-64
2023/02/10 03:45:12;;;;;;;43.00;22.77;;;;;;;0.68;77.63;102488.22;4988531;28;20504;-62
2023/02/10 03:47:39;;;;;;;41.63;22.13;;;;;;;0.70;77.46;102488.22;4989565;28;20150;-64
2023/02/10 03:50:06;;;;;;;43.95;24.23;;;;;;;0.66;78.26;102496.81;4990426;28;20137;-65
2023/02/10 03:52:33;;;;;;;43.28;25.02;;;;;;;0.59;78.73;102501.06;4993061;28;20621;-64
2023/02/10 03:55:04;;;;;;;47.17;24.05;;;;;;;0.62;78.83;102503.69;4996519;28;20179;-64
2023/02/10 03:57:31;;;;;;;42.75;23.15;;;;;;;0.62;79.18;102510.59;5001568;28;20133;-63
2023/02/10 03:59:58;;;;;;;39.75;22.98;;;;;;;0.62;79.24;102501.09;4993993;28;20042;-62
2023/02/10 04:02:26;;;;;;;39.92;22.73;;;;;;;0.62;79.68;102495.03;4993704;28;20058;-66
2023/02/10 04:04:53;;;;;;;46.03;24.20;;;;;;;0.58;79.95;102493.25;4988430;28;20586;-67
2023/02/10 04:07:20;;;;;;;42.13;23.58;;;;;;;0.60;80.00;102491.56;4981275;28;20050;-61
2023/02/10 04:09:47;;;;;;;49.50;25.98;;;;;;;0.65;80.28;102492.50;4998577;28;20064;-64
2023/02/10 04:12:14;;;;;;;46.75;25.35;;;;;;;0.65;80.31;102483.00;4994899;28;20042;-62
2023/02/10 04:14:42;;;;;;;48.80;25.00;;;;;;;0.69;80.27;102479.59;4991560;28;20050;-63
2023/02/10 04:17:09;;;;;;;46.70;24.80;;;;;;;0.62;81.13;102480.34;4987258;28;20062;-63
2023/02/10 04:19:36;;;;;;;46.83;25.80;;;;;;;0.60;81.96;102474.31;4990572;28;20076;-66
2023/02/10 04:22:04;;;;;;;51.97;26.95;;;;;;;0.62;81.92;102474.31;4998207;28;20165;-65
2023/02/10 04:24:31;;;;;;;47.30;27.40;;;;;;;0.65;81.69;102470.03;4996686;28;20050;-65
2023/02/10 04:26:58;;;;;;;47.90;26.88;;;;;;;0.70;81.85;102470.09;4990971;28;20444;-65
2023/02/10 04:29:25;;;;;;;45.33;25.50;;;;;;;0.72;81.65;102486.50;4989068;28;20030;-64
2023/02/10 04:31:52;;;;;;;54.42;28.15;;;;;;;0.72;82.56;102495.19;4992245;28;20132;-64
2023/02/10 04:34:20;;;;;;;42.30;24.83;;;;;;;0.78;81.69;102488.34;4993499;28;20077;-64
2023/02/10 04:36:47;;;;;;;44.45;26.55;;;;;;;0.84;81.44;102486.66;4996162;28;20068;-64
2023/02/10 04:39:14;;;;;;;56.70;26.13;;;;;;;0.86;81.64;102497.94;4992722;28;20142;-65
2023/02/10 04:41:41;;;;;;;55.33;27.00;;;;;;;0.83;82.29;102505.66;4994175;28;20065;-64
2023/02/10 04:44:09;;;;;;;47.70;26.50;;;;;;;0.88;82.28;102504.00;4985669;28;20145;-67
2023/02/10 04:46:36;;;;;;;53.78;28.00;;;;;;;0.87;82.92;102491.88;4992592;28;20527;-65
2023/02/10 04:49:03;;;;;;;48.22;24.75;;;;;;;0.96;82.89;102501.50;5044254;23;20650;-55
2023/02/10 04:51:30;;;;;;;50.08;27.88;;;;;;;0.91;83.53;102511.81;5027100;28;20503;-59
2023/02/10 04:53:57;;;;;;;49.60;28.60;;;;;;;0.89;83.88;102513.50;5029414;28;20569;-55
2023/02/10 04:56:24;;;;;;;46.92;25.70;;;;;;;0.88;84.59;102510.91;5027342;28;20152;-53
2023/02/10 04:58:51;;;;;;;49.75;28.48;;;;;;;0.87;84.44;102504.84;5030629;28;20141;-57
2023/02/10 05:01:19;;;;;;;56.65;28.85;;;;;;;0.85;85.21;102506.53;5023105;28;20153;-55
2023/02/10 05:03:46;;;;;;;51.50;27.27;;;;;;;0.87;85.21;102504.84;5019048;28;20095;-56
2023/02/10 05:06:14;;;;;;;53.97;29.85;;;;;;;0.86;85.98;102507.44;5027439;28;20045;-58
2023/02/10 05:08:42;;;;;;;53.13;27.83;;;;;;;0.94;85.12;102519.59;5021601;28;20075;-57
2023/02/10 05:11:11;;;;;;;56.90;28.17;;;;;;;0.97;85.32;102517.06;5042221;28;20132;-59
2023/02/10 05:13:39;;;;;;;53.85;28.35;;;;;;;0.95;85.55;102515.31;5028493;28;20056;-57
2023/02/10 05:16:08;;;;;;;57.28;29.83;;;;;;;0.92;86.02;102517.88;5026656;28;20666;-59
2023/02/10 05:18:36;;;;;;;55.95;28.40;;;;;;;0.98;85.85;102513.59;5027295;28;20081;-57
2023/02/10 05:21:03;;;;;;;63.03;30.98;;;;;;;0.94;85.89;102519.59;5032738;28;20080;-58
2023/02/10 05:23:30;;;;;;;59.65;28.90;;;;;;;0.96;85.88;102522.25;5022240;28;20053;-60
2023/02/10 05:25:57;;;;;;;56.17;29.77;;;;;;;0.99;85.74;102515.38;5021889;28;20153;-58
2023/02/10 05:28:25;;;;;;;52.45;28.05;;;;;;;1.08;85.44;102517.19;5042215;28;20068;-61
2023/02/10 05:30:52;;;;;;;54.75;28.73;;;;;;;1.14;85.35;102516.38;5043957;28;20069;-62
2023/02/10 05:33:19;;;;;;;52.65;28.15;;;;;;;1.09;86.12;102518.06;5042915;28;20149;-61
2023/02/10 05:35:46;;;;;;;54.65;28.90;;;;;;;1.04;86.55;102511.94;5034117;28;21264;-58
2023/02/10 05:38:14;;;;;;;57.72;29.45;;;;;;;1.05;86.59;102518.88;5023917;28;20091;-56
2023/02/10 05:40:41;;;;;;;54.88;29.02;;;;;;;1.04;86.33;102524.91;5019770;28;20152;-58
2023/02/10 05:43:09;;;;;;;53.40;28.17;;;;;;;1.14;85.95;102517.25;5022089;28;20461;-58
2023/02/10 05:45:37;;;;;;;63.35;32.22;;;;;;;1.07;86.48;102524.94;5024807;28;20046;-55
2023/02/10 05:48:05;;;;;;;54.20;30.33;;;;;;;0.97;87.13;102527.44;5020773;28;20128;-59
2023/02/10 05:50:32;;;;;;;65.78;31.83;;;;;;;1.04;87.09;102532.69;5025840;28;20059;-56
2023/02/10 05:52:59;;;;;;;55.47;30.08;;;;;;;0.96;87.72;102533.47;5023000;28;20157;-58
2023/02/10 05:55:26;;;;;;;53.63;29.83;;;;;;;0.97;87.62;102526.56;5023717;28;20057;-59
2023/02/10 05:57:54;;;;;;;51.95;28.67;;;;;;;0.94;88.42;102518.75;5017339;28;20058;-59
2023/02/10 06:00:21;;;;;;;52.65;29.30;;;;;;;0.93;88.58;102512.69;5022941;28;20045;-58
2023/02/10 06:02:48;;;;;;;56.88;29.42;;;;;;;0.92;88.64;102515.28;5026654;28;20046;-57
2023/02/10 06:05:16;;;;;;;52.42;29.35;;;;;;;0.93;88.92;102519.59;5029151;28;20081;-53
2023/02/10 06:07:43;;;;;;;55.95;29.73;;;;;;;0.89;89.59;102523.88;5024131;28;20180;-54
2023/02/10 06:10:10;;;;;;;53.50;30.25;;;;;;;0.94;89.13;102535.16;5022375;28;20077;-54
2023/02/10 06:12:37;;;;;;;54.75;29.83;;;;;;;0.90;89.75;102530.81;5025267;28;20132;-58
2023/02/10 06:15:05;;;;;;;59.55;30.00;;;;;;;0.93;89.49;102530.84;5016539;28;20084;-58
2023/02/10 06:17:32;;;;;;;60.00;29.83;;;;;;;0.92;89.89;102539.47;5021110;28;21385;-58
2023/02/10 06:20:00;;;;;;;56.55;30.65;;;;;;;0.90;89.97;102537.72;5029901;28;20129;-56
2023/02/10 06:22:27;;;;;;;58.28;30.15;;;;;;;0.98;89.55;102542.13;5029538;28;20084;-59
2023/02/10 06:24:54;;;;;;;55.50;29.85;;;;;;;0.96;89.94;102550.75;5025217;28;20049;-60
2023/02/10 06:27:24;;;;;;;61.10;29.95;;;;;;;0.93;90.54;102549.00;5023675;28;20157;-58
2023/02/10 06:29:51;;;;;;;60.45;30.52;;;;;;;0.91;90.76;102553.31;5037500;28;20057;-56
2023/02/10 06:32:18;;;;;;;56.63;31.55;;;;;;;0.99;90.26;102551.69;5016612;28;20195;-59
2023/02/10 06:34:46;;;;;;;54.10;31.17;;;;;;;0.99;89.85;102564.66;5024662;28;20304;-56
2023/02/10 06:37:16;;;;;;;63.17;32.17;;;;;;;0.94;90.17;102555.91;5020469;28;20051;-58
2023/02/10 06:39:44;;;;;;;56.70;30.50;;;;;;;0.93;90.52;102561.09;5032683;28;20065;-59
2023/02/10 06:42:11;;;;;;;58.10;30.02;;;;;;;0.91;90.82;102553.31;5041151;28;20155;-59
2023/02/10 06:44:38;;;;;;;55.90;30.58;;;;;;;0.96;90.46;102558.53;5027744;28;20608;-57
2023/02/10 06:47:06;;;;;;;58.17;31.52;;;;;;;0.95;91.10;102565.47;5029549;28;20144;-59
2023/02/10 06:49:33;;;;;;;59.35;30.98;;;;;;;0.91;91.66;102561.09;5017103;28;20557;-57
2023/02/10 06:52:00;;;;;;;60.70;32.33;;;;;;;0.91;92.29;102566.28;5021762;28;20053;-56
2023/02/10 06:54:33;;;;;;;55.42;30.95;;;;;;;0.92;92.10;102561.94;5026148;28;20064;-57
2023/02/10 06:57:00;;;;;;;57.78;30.73;;;;;;;0.96;91.54;102563.72;5030638;28;20060;-58
2023/02/10 06:59:27;;;;;;;58.53;29.05;;;;;;;1.06;91.67;102569.88;5027861;28;20080;-55
2023/02/10 07:02:00;;;;;;;63.88;31.45;;;;;;;1.00;92.40;102579.34;5027118;28;20052;-59
2023/02/10 07:04:28;;;;;;;52.00;28.42;;;;;;;1.02;92.52;102590.59;5027778;28;20480;-56
2023/02/10 07:06:56;;;;;;;65.82;33.22;;;;;;;1.05;92.35;102586.31;5016873;28;20118;-59
2023/02/10 07:09:24;;;;;;;53.88;29.70;;;;;;;1.05;92.87;102582.00;5022200;28;20356;-59
2023/02/10 07:11:51;;;;;;;63.70;32.70;;;;;;;1.08;92.78;102578.53;5027429;28;20136;-55
2023/02/10 07:14:18;;;;;;;60.28;31.48;;;;;;;1.09;92.78;102580.31;5026957;28;20140;-58
2023/02/10 07:16:47;;;;;;;62.83;31.48;;;;;;;1.12;93.20;102585.50;5026595;28;20084;-58
2023/02/10 07:19:14;;;;;;;54.08;30.27;;;;;;;1.12;93.09;102585.50;5025791;28;20140;-56
2023/02/10 07:21:41;;;;;;;50.85;27.65;;;;;;;1.13;92.95;102587.28;5022105;28;20045;-57
2023/02/10 07:24:08;;;;;;;59.38;31.13;;;;;;;1.17;92.74;102594.22;5017333;28;20071;-58
2023/02/10 07:26:36;;;;;;;60.45;31.08;;;;;;;1.23;92.77;102596.91;5020695;28;20141;-55
2023/02/10 07:29:03;;;;;;;53.13;30.30;;;;;;;1.29;92.22;102606.47;5008846;28;20058;-57
2023/02/10 07:31:34;;;;;;;63.03;30.33;;;;;;;1.30;92.39;102605.59;5010990;28;20220;-59
2023/02/10 07:34:02;;;;;;;54.53;30.55;;;;;;;1.29;93.15;102603.88;5019292;28;20141;-59
2023/02/10 07:36:29;;;;;;;56.22;31.02;;;;;;;1.32;92.84;102606.50;5014113;28;20152;-58
2023/02/10 07:38:56;;;;;;;52.45;30.02;;;;;;;1.35;92.99;102604.81;5016125;28;20147;-58
2023/02/10 07:41:24;;;;;;;58.20;31.05;;;;;;;1.37;93.00;102607.44;5012292;28;20137;-57
2023/02/10 07:43:51;;;;;;;49.97;29.05;;;;;;;1.39;93.04;102611.75;5015702;28;20428;-57
2023/02/10 07:46:18;;;;;;;58.30;30.33;;;;;;;1.42;93.25;102601.44;5013047;28;20132;-59
2023/02/10 07:48:46;;;;;;;52.85;29.20;;;;;;;1.50;92.52;102610.16;5011432;28;20053;-60
2023/02/10 07:51:13;;;;;;;58.55;28.90;;;;;;;1.51;92.91;102614.50;5015101;28;20128;-59
2023/02/10 07:53:42;;;;;;;57.40;29.45;;;;;;;1.55;92.64;102622.31;5016064;28;20137;-56
2023/02/10 07:56:09;;;;;;;55.50;29.45;;;;;;;1.57;92.67;102616.28;5013931;28;20054;-57
2023/02/10 07:58:37;;;;;;;55.30;27.58;;;;;;;1.57;92.91;102621.47;5011407;28;20066;-58
2023/02/10 08:01:08;;;;;;;58.53;29.02;;;;;;;1.60;92.63;102629.28;5014148;28;20144;-59
2023/02/10 08:03:36;;;;;;;58.28;30.15;;;;;;;1.62;92.82;102625.00;5009867;28;20514;-57
2023/02/10 08:06:03;;;;;;;54.17;29.45;;;;;;;1.63;92.80;102621.56;5015522;28;20054;-58
2023/02/10 08:08:31;;;;;;;57.92;30.65;;;;;;;1.69;92.67;102620.72;5018236;28;20136;-57
2023/02/10 08:10:58;;;;;;;53.22;29.23;;;;;;;1.76;92.24;102630.34;5015450;28;20081;-56
2023/02/10 08:13:27;;;;;;;56.08;28.63;;;;;;;1.72;92.91;102631.16;5016955;28;20133;-58
2023/02/10 08:15:54;;;;;;;57.28;28.80;;;;;;;1.76;92.54;102639.00;5009101;28;20132;-57
2023/02/10 08:18:21;;;;;;;49.70;27.95;;;;;;;1.80;92.82;102642.47;5011260;28;20153;-59
2023/02/10 08:20:48;;;;;;;50.92;27.92;;;;;;;1.80;92.75;102637.28;5009946;28;20057;-61
2023/02/10 08:23:17;;;;;;;52.05;28.50;;;;;;;1.87;92.57;102636.50;5013049;28;20066;-58
2023/02/10 08:25:44;;;;;;;50.45;28.85;;;;;;;1.99;91.92;102652.19;5018807;28;20141;-57
2023/02/10 08:28:11;;;;;;;101.53;33.28;;;;;;;1.97;92.08;102650.41;5017531;28;20058;-58
2023/02/10 08:30:39;;;;;;;67.20;30.48;;;;;;;1.96;92.47;102639.16;5019637;28;20085;-58
2023/02/10 08:33:07;;;;;;;60.03;29.85;;;;;;;2.00;92.26;102653.94;5016252;28;20061;-55
2023/02/10 08:35:38;;;;;;;55.15;29.38;;;;;;;2.07;92.19;102651.38;5020765;28;20064;-56
2023/02/10 08:38:05;;;;;;;58.13;30.30;;;;;;;2.15;91.55;102657.50;5014860;28;20057;-59
2023/02/10 08:40:33;;;;;;;55.05;28.27;;;;;;;2.15;91.50;102654.91;5016978;28;20050;-57
2023/02/10 08:43:00;;;;;;;57.20;28.92;;;;;;;2.19;91.49;102649.75;5019326;28;20077;-57
2023/02/10 08:45:28;;;;;;;58.55;28.92;;;;;;;2.21;91.31;102655.84;5018171;28;20136;-56
2023/02/10 08:47:55;;;;;;;53.67;29.50;;;;;;;2.24;91.92;102663.66;5018734;28;20490;-57
2023/02/10 08:50:22;;;;;;;59.45;30.98;;;;;;;2.27;91.56;102649.81;5015124;28;20059;-59
2023/02/10 08:52:49;;;;;;;55.00;28.88;;;;;;;2.33;91.74;102660.25;5015184;28;20053;-60
2023/02/10 08:55:16;;;;;;;55.30;29.73;;;;;;;2.43;90.71;102651.69;5012352;28;20067;-58
2023/02/10 08:57:43;;;;;;;57.65;28.65;;;;;;;2.45;90.65;102656.88;5014231;28;20059;-58
2023/02/10 09:00:11;;;;;;;49.72;29.02;;;;;;;2.51;90.73;102654.31;5016543;28;20554;-59
2023/02/10 09:02:38;;;;;;;56.38;29.10;;;;;;;2.58;90.61;102670.84;5015072;28;20062;-56
2023/02/10 09:05:06;;;;;;;51.45;28.80;;;;;;;2.63;90.12;102666.56;5011848;28;20057;-58
2023/02/10 09:07:38;;;;;;;54.45;27.15;;;;;;;2.65;90.26;102663.06;5014806;28;20400;-59
2023/02/10 09:10:06;;;;;;;57.25;31.00;;;;;;;2.69;89.63;102646.63;5009800;28;20049;-59
2023/02/10 09:12:33;;;;;;;54.05;30.08;;;;;;;2.76;89.92;102650.16;5009895;28;20087;-57
2023/02/10 09:15:00;;;;;;;56.42;29.45;;;;;;;2.78;89.97;102657.09;5014304;28;20063;-58
2023/02/10 09:17:27;;;;;;;64.25;30.77;;;;;;;2.82;89.30;102662.31;5013284;28;20081;-61
2023/02/10 09:19:54;;;;;;;57.58;30.55;;;;;;;2.80;89.67;102659.72;5011037;28;20045;-59
2023/02/10 09:22:22;;;;;;;56.17;30.30;;;;;;;2.81;89.43;102677.06;5010396;28;20123;-61
2023/02/10 09:24:51;;;;;;;54.70;29.67;;;;;;;2.85;89.61;102675.34;5011047;28;20064;-61
2023/02/10 09:27:19;;;;;;;65.72;32.88;;;;;;;2.86;89.29;102672.75;5014042;28;20086;-61
2023/02/10 09:29:46;;;;;;;59.63;33.28;;;;;;;2.84;89.47;102678.78;5013795;28;22090;-60
2023/02/10 09:32:14;;;;;;;59.65;32.63;;;;;;;2.83;89.65;102671.88;5008276;28;20341;-61
2023/02/10 09:34:44;;;;;;;51.55;29.48;;;;;;;2.84;90.28;102671.88;5018962;28;20050;-59
2023/02/10 09:37:11;;;;;;;63.13;33.33;;;;;;;2.89;89.92;102672.78;5016782;28;20460;-59
2023/02/10 09:39:39;;;;;;;56.90;30.55;;;;;;;2.93;89.94;102677.16;5016488;28;20056;-57
2023/02/10 09:42:19;;;;;;;64.82;34.38;;;;;;;2.98;89.57;102680.63;5009854;28;20379;-59
2023/02/10 09:44:56;;;;;;;59.08;31.23;;;;;;;2.99;90.11;102679.78;5011946;28;20065;-59
2023/02/10 09:47:37;;;;;;;54.83;31.52;;;;;;;3.11;89.70;102683.28;5013463;28;20592;-58
2023/02/10 09:50:26;;;;;;;61.80;33.97;;;;;;;3.09;89.42;102685.88;5013247;28;20064;-60
2023/02/10 09:53:21;;;;;;;53.58;31.63;;;;;;;3.10;90.20;102694.56;5013571;28;20430;-59
2023/02/10 09:56:01;;;;;;;62.30;31.50;;;;;;;3.13;90.49;102702.41;5016938;28;20478;-60
2023/02/10 09:58:32;;;;;;;59.17;31.23;;;;;;;3.11;90.29;102698.91;5012444;28;20064;-58
2023/02/10 10:01:16;;;;;;;61.92;31.60;;;;;;;3.21;90.07;102696.38;5013105;28;20076;-57
2023/02/10 10:03:46;;;;;;;58.53;31.00;;;;;;;3.32;89.67;102705.94;5018970;28;20064;-59
2023/02/10 10:06:23;;;;;;;67.25;33.72;;;;;;;3.29;89.14;102696.41;5016874;28;20492;-59
2023/02/10 10:09:07;;;;;;;60.50;32.08;;;;;;;3.36;88.77;102705.97;5014691;28;20127;-58
2023/02/10 10:11:43;;;;;;;66.05;34.15;;;;;;;3.27;89.82;102704.19;5018545;28;20148;-60
2023/02/10 10:14:31;;;;;;;;;;;;;;;3.23;89.59;102709.38;5012083;28;20048;-58
2023/02/10 10:17:16;;;;;;;;;;;;;;;3.21;89.95;102709.38;5014153;28;19929;-63
2023/02/10 10:20:02;;;;;;;64.53;32.00;;;;;;;3.24;90.21;102703.31;5011794;28;20318;-60
2023/02/10 10:22:41;;;;;;;63.70;31.75;;;;;;;3.26;90.03;102706.81;5013167;28;20493;-59
2023/02/10 10:25:18;;;;;;;61.05;31.10;;;;;;;3.28;90.62;102702.44;5017661;28;20053;-59
2023/02/10 10:28:00;;;;;;;64.18;32.58;;;;;;;3.27;89.95;102705.94;5029300;28;20058;-59
2023/02/10 10:30:47;;;;;;;64.30;30.52;;;;;;;3.29;90.13;102719.84;5015831;28;20462;-59
2023/02/10 10:33:21;;;;;;;66.22;32.17;;;;;;;3.24;90.62;102704.19;5009108;28;20198;-56
2023/02/10 10:35:48;;;;;;;59.33;30.15;;;;;;;3.34;90.47;102712.91;5015854;28;20892;-60
2023/02/10 10:38:25;;;;;;;65.15;31.70;;;;;;;3.30;90.71;102699.00;5013669;28;20176;-59
2023/02/10 10:40:53;;;;;;;;;;;;;;;3.34;90.07;102714.66;5016476;28;20060;-60
2023/02/10 10:43:24;;;;;;;67.93;30.10;;;;;;;3.37;90.59;102709.44;5012066;28;19921;-61
2023/02/10 10:46:13;;;;;;;53.05;29.45;;;;;;;3.47;90.47;102727.72;5011126;28;20548;-60
2023/02/10 10:48:41;;;;;;;54.03;28.70;;;;;;;3.42;89.85;102698.19;5031045;28;20077;-61
2023/02/10 10:51:09;;;;;;;59.10;29.27;;;;;;;3.53;89.93;102709.50;5032934;28;21319;-60
2023/02/10 10:53:43;;;;;;;63.03;29.35;;;;;;;3.50;89.67;102716.44;5028480;28;20121;-61
2023/02/10 10:56:22;;;;;;;57.10;28.05;;;;;;;3.53;89.16;102704.31;5023330;28;20167;-58
2023/02/10 10:58:50;;;;;;;62.65;30.50;;;;;;;3.57;90.39;102696.50;5008993;28;20067;-58
2023/02/10 11:01:33;;;;;;;57.35;28.83;;;;;;;3.66;89.64;102687.00;5011762;28;20081;-55
2023/02/10 11:04:14;;;;;;;63.20;29.85;;;;;;;3.68;89.61;102680.03;5009667;28;20058;-57
2023/02/10 11:06:46;;;;;;;51.55;28.33;;;;;;;3.74;89.94;102685.28;5005004;28;20053;-57
2023/02/10 11:09:22;;;;;;;56.15;29.65;;;;;;;3.81;89.67;102680.94;5008553;28;20136;-58
2023/02/10 11:11:50;;;;;;;53.90;27.35;;;;;;;3.87;89.14;102675.72;5010571;28;20521;-57
2023/02/10 11:14:21;;;;;;;57.33;28.70;;;;;;;3.90;88.50;102680.94;5011919;28;20172;-57
2023/02/10 11:16:51;;;;;;;54.53;28.48;;;;;;;3.94;88.26;102682.69;5008549;28;20054;-59
2023/02/10 11:19:25;;;;;;;56.03;29.50;;;;;;;4.01;88.79;102668.81;5028139;28;20057;-62
2023/02/10 11:21:53;;;;;;;56.20;28.00;;;;;;;4.24;87.68;102663.63;5009419;28;20057;-58
2023/02/10 11:24:30;;;;;;;45.03;25.02;;;;;;;4.39;86.75;102661.88;5012071;28;20061;-58
2023/02/10 11:27:01;;;;;;;55.80;26.02;;;;;;;4.39;86.68;102664.47;5022963;23;20065;-64
2023/02/10 11:29:31;;;;;;;49.47;26.83;;;;;;;4.37;86.39;102656.66;4994543;28;20054;-64
2023/02/10 11:31:59;;;;;;;59.83;27.00;;;;;;;4.41;86.30;102657.50;4988674;28;20673;-64